createdAt,value
2023-04-10T00:00:36.315Z,18.30
2023-04-10T00:03:03.496Z,18.30
2023-04-10T00:05:30.755Z,18.30
2023-04-10T00:07:57.531Z,18.30
2023-04-10T00:10:26.333Z,18.30
2023-04-10T00:12:54.003Z,18.30
2023-04-10T00:15:20.912Z,18.30
2023-04-10T00:17:47.720Z,18.20
2023-04-10T00:20:14.589Z,18.30
2023-04-10T00:22:41.921Z,18.30
2023-04-10T00:25:08.878Z,18.20
2023-04-10T00:27:35.703Z,18.20
2023-04-10T00:30:02.704Z,18.20
2023-04-10T00:32:29.758Z,18.20
2023-04-10T00:34:56.569Z,18.20
2023-04-10T00:37:23.446Z,18.20
2023-04-10T00:39:50.446Z,18.20
2023-04-10T00:42:17.336Z,18.20
2023-04-10T00:44:44.253Z,18.20
2023-04-10T00:47:13.172Z,18.20
2023-04-10T00:49:41.458Z,18.20
2023-04-10T00:52:08.972Z,18.20
2023-04-10T00:54:36.565Z,18.20
2023-04-10T00:57:04.803Z,18.20
2023-04-10T00:59:31.789Z,18.10
2023-04-10T01:01:59.277Z,18.20
2023-04-10T01:04:28.865Z,18.10
2023-04-10T01:07:06.316Z,18.20
2023-04-10T01:09:46.050Z,18.10
2023-04-10T01:12:34.021Z,18.20
2023-04-10T01:15:10.703Z,18.10
2023-04-10T01:17:59.810Z,18.10
2023-04-10T01:20:32.889Z,18.10
2023-04-10T01:23:11.588Z,18.10
2023-04-10T01:26:17.231Z,18.10
2023-04-10T01:29:03.684Z,18.10
2023-04-10T01:31:34.094Z,18.10
2023-04-10T01:34:07.345Z,18.10
2023-04-10T01:36:40.764Z,18.10
2023-04-10T01:39:09.656Z,18.10
2023-04-10T01:41:38.849Z,18.10
2023-04-10T01:44:07.411Z,18.10
2023-04-10T01:46:37.401Z,18.00
2023-04-10T01:49:05.254Z,18.10
2023-04-10T01:51:34.373Z,18.10
2023-04-10T01:54:07.138Z,18.10
2023-04-10T01:56:35.237Z,18.00
2023-04-10T01:59:03.741Z,18.00
2023-04-10T02:01:30.754Z,18.00
2023-04-10T02:03:59.562Z,18.00
2023-04-10T02:06:46.019Z,18.00
2023-04-10T02:09:51.858Z,18.00
2023-04-10T02:12:41.672Z,18.00
2023-04-10T02:15:10.055Z,18.00
2023-04-10T02:17:37.395Z,18.00
2023-04-10T02:20:06.534Z,18.00
2023-04-10T02:22:34.203Z,18.00
2023-04-10T02:25:03.803Z,18.00
2023-04-10T02:27:35.798Z,18.00
2023-04-10T02:30:03.970Z,18.00
2023-04-10T02:32:33.701Z,18.00
2023-04-10T02:35:02.150Z,18.00
2023-04-10T02:37:31.153Z,18.00
2023-04-10T02:40:00.297Z,18.00
2023-04-10T02:42:31.171Z,18.00
2023-04-10T02:45:00.979Z,17.90
2023-04-10T02:47:32.706Z,18.00
2023-04-10T02:49:59.489Z,18.00
2023-04-10T02:52:30.298Z,18.00
2023-04-10T02:54:57.044Z,18.00
2023-04-10T02:57:27.233Z,18.00
2023-04-10T02:59:54.720Z,18.00
2023-04-10T03:02:23.663Z,17.90
2023-04-10T03:04:53.498Z,18.00
2023-04-10T03:07:20.525Z,18.00
2023-04-10T03:09:48.720Z,17.90
2023-04-10T03:12:15.481Z,18.00
2023-04-10T03:14:42.232Z,18.00
2023-04-10T03:17:08.995Z,18.00
2023-04-10T03:19:35.974Z,17.90
2023-04-10T03:22:03.620Z,18.00
2023-04-10T03:24:30.342Z,17.90
2023-04-10T03:26:57.749Z,18.00
2023-04-10T03:29:24.597Z,18.00
2023-04-10T03:31:51.395Z,17.90
2023-04-10T03:34:18.637Z,17.90
2023-04-10T03:36:46.635Z,17.90
2023-04-10T03:39:14.824Z,17.90
2023-04-10T03:41:41.599Z,17.90
2023-04-10T03:44:08.672Z,17.90
2023-04-10T03:46:35.596Z,17.90
2023-04-10T03:49:02.393Z,17.90
2023-04-10T03:51:31.573Z,17.90
2023-04-10T03:53:58.412Z,17.90
2023-04-10T03:56:25.172Z,17.90
2023-04-10T03:58:52.091Z,17.90
2023-04-10T04:01:19.704Z,17.90
2023-04-10T04:04:01.178Z,17.90
2023-04-10T04:06:48.718Z,17.90
2023-04-10T04:09:33.854Z,17.90
2023-04-10T04:12:03.584Z,17.90
2023-04-10T04:14:57.715Z,17.90
2023-04-10T04:17:46.291Z,17.90
2023-04-10T04:20:31.932Z,17.90
2023-04-10T04:23:12.286Z,17.90
2023-04-10T04:25:56.923Z,17.90
2023-04-10T04:28:47.290Z,17.80
2023-04-10T04:31:14.036Z,17.80
2023-04-10T04:34:03.625Z,17.80
2023-04-10T04:37:02.982Z,17.80
2023-04-10T04:39:32.997Z,17.80
2023-04-10T04:42:16.307Z,17.80
2023-04-10T04:45:01.798Z,17.80
2023-04-10T04:47:44.040Z,17.80
2023-04-10T04:50:31.410Z,17.80
2023-04-10T04:53:11.951Z,17.80
2023-04-10T04:55:47.027Z,17.80
2023-04-10T04:58:32.438Z,17.80
2023-04-10T05:01:27.602Z,17.80
2023-04-10T05:04:10.994Z,17.80
2023-04-10T05:06:56.928Z,17.80
2023-04-10T05:09:43.589Z,17.80
2023-04-10T05:12:22.976Z,17.80
2023-04-10T05:14:57.216Z,17.80
2023-04-10T05:17:41.458Z,17.80
2023-04-10T05:20:35.962Z,17.80
2023-04-10T05:23:20.748Z,17.80
2023-04-10T05:26:06.263Z,17.80
2023-04-10T05:28:51.479Z,17.80
2023-04-10T05:31:46.836Z,17.80
2023-04-10T05:34:32.054Z,17.80
2023-04-10T05:37:13.084Z,17.80
2023-04-10T05:39:56.022Z,17.80
2023-04-10T05:42:55.012Z,17.80
2023-04-10T05:45:31.087Z,17.80
2023-04-10T05:47:57.941Z,17.80
2023-04-10T05:50:35.972Z,17.80
2023-04-10T05:53:15.515Z,17.90
2023-04-10T05:56:03.665Z,17.90
2023-04-10T05:58:49.224Z,17.90
2023-04-10T06:01:34.780Z,17.90
2023-04-10T06:04:03.925Z,17.90
2023-04-10T06:06:31.369Z,18.00
2023-04-10T06:08:58.215Z,17.90
2023-04-10T06:11:25.159Z,18.00
2023-04-10T06:13:54.936Z,18.00
2023-04-10T06:16:28.314Z,18.00
2023-04-10T06:18:55.549Z,18.00
2023-04-10T06:21:22.582Z,18.00
2023-04-10T06:23:49.438Z,18.00
2023-04-10T06:26:18.573Z,18.00
2023-04-10T06:28:45.879Z,18.00
2023-04-10T06:31:15.589Z,18.10
2023-04-10T06:33:42.675Z,18.10
2023-04-10T06:36:10.641Z,18.10
2023-04-10T06:38:43.800Z,18.10
2023-04-10T06:41:11.531Z,18.10
2023-04-10T06:43:39.751Z,18.10
2023-04-10T06:46:06.958Z,18.10
2023-04-10T06:48:33.867Z,18.20
2023-04-10T06:51:00.925Z,18.20
2023-04-10T06:53:27.660Z,18.20
2023-04-10T06:55:54.442Z,18.30
2023-04-10T06:58:21.265Z,18.30
2023-04-10T07:00:48.045Z,18.30
2023-04-10T07:03:14.934Z,18.30
2023-04-10T07:05:42.318Z,18.40
2023-04-10T07:08:09.251Z,18.40
2023-04-10T07:10:36.382Z,18.40
2023-04-10T07:13:03.213Z,18.50
2023-04-10T07:15:29.914Z,18.50
2023-04-10T07:17:56.717Z,18.60
2023-04-10T07:20:23.533Z,18.60
2023-04-10T07:22:50.360Z,18.60
2023-04-10T07:25:18.432Z,18.70
2023-04-10T07:27:45.189Z,18.70
2023-04-10T07:30:13.688Z,18.80
2023-04-10T07:32:42.290Z,18.80
2023-04-10T07:35:09.756Z,18.90
2023-04-10T07:37:36.641Z,19.00
2023-04-10T07:40:03.892Z,19.10
2023-04-10T07:42:30.765Z,19.20
2023-04-10T07:44:57.581Z,19.40
2023-04-10T07:47:24.532Z,19.50
2023-04-10T07:49:51.571Z,19.60
2023-04-10T07:52:18.423Z,19.80
2023-04-10T07:54:45.417Z,20.00
2023-04-10T07:57:12.142Z,20.20
2023-04-10T07:59:38.878Z,20.40
2023-04-10T08:02:06.386Z,20.70
2023-04-10T08:04:33.441Z,20.80
2023-04-10T08:07:01.143Z,20.90
2023-04-10T08:09:27.993Z,20.90
2023-04-10T08:11:56.497Z,20.90
2023-04-10T08:14:23.148Z,20.80
2023-04-10T08:16:49.928Z,20.80
2023-04-10T08:19:16.703Z,20.80
2023-04-10T08:21:43.440Z,20.70
2023-04-10T08:24:10.198Z,20.70
2023-04-10T08:26:37.100Z,20.70
2023-04-10T08:29:03.861Z,20.70
2023-04-10T08:31:33.051Z,20.80
2023-04-10T08:34:00.149Z,20.80
2023-04-10T08:36:28.475Z,20.90
2023-04-10T08:38:55.227Z,20.90
2023-04-10T08:41:22.005Z,20.90
2023-04-10T08:43:50.089Z,20.90
2023-04-10T08:46:17.104Z,20.90
2023-04-10T08:49:03.578Z,20.80
2023-04-10T08:51:47.962Z,20.70
2023-04-10T08:54:27.842Z,20.70
2023-04-10T08:56:55.928Z,20.60
2023-04-10T08:59:23.136Z,20.60
2023-04-10T09:01:50.131Z,20.50
2023-04-10T09:04:18.014Z,20.40
2023-04-10T09:06:45.118Z,20.40
2023-04-10T09:09:11.927Z,20.30
2023-04-10T09:12:01.257Z,20.30
2023-04-10T09:14:31.097Z,20.20
2023-04-10T09:17:14.464Z,20.20
2023-04-10T09:19:41.661Z,20.10
2023-04-10T09:22:08.958Z,20.10
2023-04-10T09:24:39.734Z,20.00
2023-04-10T09:27:07.678Z,20.00
2023-04-10T09:29:52.602Z,20.00
2023-04-10T09:32:38.100Z,19.90
2023-04-10T09:35:05.934Z,19.90
2023-04-10T09:37:33.600Z,19.90
2023-04-10T09:40:00.985Z,19.80
2023-04-10T09:42:37.292Z,19.80
2023-04-10T09:45:05.150Z,19.80
2023-04-10T09:47:33.122Z,19.80
2023-04-10T09:50:01.014Z,19.80
2023-04-10T09:52:33.830Z,19.80
2023-04-10T09:55:05.707Z,19.70
2023-04-10T09:57:34.225Z,19.70
2023-04-10T10:00:02.017Z,19.70
2023-04-10T10:02:37.213Z,19.80
2023-04-10T10:05:05.328Z,19.70
2023-04-10T10:07:32.611Z,19.80
2023-04-10T10:10:02.702Z,19.80
2023-04-10T10:12:50.552Z,19.70
2023-04-10T10:15:32.680Z,19.80
2023-04-10T10:18:07.948Z,19.80
2023-04-10T10:20:36.907Z,19.80
2023-04-10T10:23:04.350Z,19.80
2023-04-10T10:25:31.659Z,19.80
2023-04-10T10:28:02.922Z,19.80
2023-04-10T10:30:32.788Z,19.80
2023-04-10T10:33:00.796Z,19.80
2023-04-10T10:35:29.662Z,19.80
2023-04-10T10:37:59.330Z,19.80
2023-04-10T10:40:47.851Z,19.80
2023-04-10T10:43:43.925Z,19.80
2023-04-10T10:46:45.341Z,19.90
2023-04-10T10:49:12.149Z,19.90
2023-04-10T10:51:49.728Z,20.00
2023-04-10T10:54:33.854Z,20.00
2023-04-10T10:57:01.830Z,20.00
2023-04-10T10:59:43.960Z,20.10
2023-04-10T11:02:18.579Z,20.10
2023-04-10T11:04:47.578Z,20.20
2023-04-10T11:07:16.292Z,20.30
2023-04-10T11:09:47.184Z,20.40
2023-04-10T11:12:14.278Z,20.60
2023-04-10T11:14:43.117Z,20.70
2023-04-10T11:17:11.575Z,20.80
2023-04-10T11:20:11.053Z,20.90
2023-04-10T11:23:08.299Z,21.00
2023-04-10T11:25:52.384Z,21.10
2023-04-10T11:28:36.249Z,21.10
2023-04-10T11:31:15.659Z,21.10
2023-04-10T11:33:42.548Z,21.10
2023-04-10T11:36:09.371Z,21.10
2023-04-10T11:38:36.330Z,21.00
2023-04-10T11:41:04.734Z,21.00
2023-04-10T11:43:32.255Z,21.00
2023-04-10T11:46:01.552Z,21.00
2023-04-10T11:48:29.493Z,21.00
2023-04-10T11:50:56.488Z,21.00
2023-04-10T11:53:23.839Z,20.90
2023-04-10T11:55:50.705Z,20.90
2023-04-10T11:58:27.835Z,20.90
2023-04-10T12:01:02.661Z,20.90
2023-04-10T12:03:40.876Z,20.90
2023-04-10T12:06:10.905Z,20.90
2023-04-10T12:08:42.693Z,20.90
2023-04-10T12:11:10.785Z,21.00
2023-04-10T12:13:38.119Z,20.90
2023-04-10T12:16:08.049Z,21.00
2023-04-10T12:18:35.896Z,20.90
2023-04-10T12:21:05.022Z,21.00
2023-04-10T12:23:32.640Z,21.00
2023-04-10T12:26:10.417Z,21.00
2023-04-10T12:28:38.822Z,20.90
2023-04-10T12:31:06.215Z,20.90
2023-04-10T12:33:33.138Z,20.90
2023-04-10T12:36:00.076Z,20.90
2023-04-10T12:38:37.157Z,20.80
2023-04-10T12:41:04.454Z,20.80
2023-04-10T12:43:39.024Z,20.80
2023-04-10T12:46:06.704Z,20.80
2023-04-10T12:48:33.657Z,20.80
2023-04-10T12:51:00.875Z,20.70
2023-04-10T12:53:28.157Z,20.70
2023-04-10T12:56:00.671Z,20.60
2023-04-10T12:58:28.300Z,20.60
2023-04-10T13:00:58.714Z,20.50
2023-04-10T13:03:26.007Z,20.50
2023-04-10T13:05:53.604Z,20.40
2023-04-10T13:08:21.310Z,20.40
2023-04-10T13:10:49.432Z,20.40
2023-04-10T13:13:16.707Z,20.30
2023-04-10T13:15:43.794Z,20.30
2023-04-10T13:18:10.921Z,20.30
2023-04-10T13:20:39.744Z,20.20
2023-04-10T13:23:08.036Z,20.20
2023-04-10T13:25:39.844Z,20.10
2023-04-10T13:28:10.958Z,20.10
2023-04-10T13:30:40.158Z,20.10
2023-04-10T13:33:08.576Z,20.10
2023-04-10T13:35:35.353Z,20.10
2023-04-10T13:38:02.173Z,20.10
2023-04-10T13:40:28.982Z,20.10
2023-04-10T13:42:55.817Z,20.00
2023-04-10T13:45:22.797Z,20.00
2023-04-10T13:47:49.653Z,20.00
2023-04-10T13:50:16.463Z,19.90
2023-04-10T13:52:43.302Z,19.90
2023-04-10T13:55:10.382Z,19.90
2023-04-10T13:57:37.377Z,19.90
2023-04-10T14:00:04.815Z,19.90
2023-04-10T14:02:39.674Z,19.90
2023-04-10T14:05:06.934Z,19.90
2023-04-10T14:07:33.677Z,19.90
2023-04-10T14:10:01.176Z,19.90
2023-04-10T14:12:27.982Z,19.90
2023-04-10T14:14:56.528Z,19.90
2023-04-10T14:17:23.503Z,19.90
2023-04-10T14:19:51.629Z,19.90
2023-04-10T14:22:18.798Z,19.80
2023-04-10T14:24:45.846Z,19.80
2023-04-10T14:27:14.105Z,19.80
2023-04-10T14:32:09.707Z,19.80
2023-04-10T14:34:36.927Z,19.70
2023-04-10T14:37:03.794Z,19.70
2023-04-10T14:39:31.378Z,19.70
2023-04-10T14:41:58.136Z,19.70
2023-04-10T14:44:24.926Z,19.70
2023-04-10T14:46:51.738Z,19.70
2023-04-10T14:49:18.472Z,19.60
2023-04-10T14:51:46.055Z,19.70
2023-04-10T14:54:12.908Z,19.60
2023-04-10T14:56:40.133Z,19.60
2023-04-10T14:59:07.057Z,19.60
2023-04-10T15:01:38.198Z,19.60
2023-04-10T15:04:05.257Z,19.60
2023-04-10T15:06:35.265Z,19.60
2023-04-10T15:09:03.093Z,19.60
2023-04-10T15:11:29.822Z,19.60
2023-04-10T15:13:59.322Z,19.60
2023-04-10T15:16:26.342Z,19.50
2023-04-10T15:18:53.242Z,19.50
2023-04-10T15:21:19.983Z,19.50
2023-04-10T15:23:46.757Z,19.40
2023-04-10T15:26:17.267Z,19.40
2023-04-10T15:28:44.091Z,19.40
2023-04-10T15:31:11.538Z,19.40
2023-04-10T15:33:39.850Z,19.40
2023-04-10T15:36:07.962Z,19.40
2023-04-10T15:38:35.806Z,19.40
2023-04-10T15:41:12.276Z,19.40
2023-04-10T15:43:39.499Z,19.40
2023-04-10T15:46:06.565Z,19.40
2023-04-10T15:48:33.602Z,19.30
2023-04-10T15:51:05.342Z,19.30
2023-04-10T15:53:32.546Z,19.30
2023-04-10T15:55:59.494Z,19.30
2023-04-10T15:58:27.239Z,19.30
2023-04-10T16:00:54.166Z,19.30
2023-04-10T16:03:21.144Z,19.30
2023-04-10T16:05:48.053Z,19.30
2023-04-10T16:08:14.882Z,19.30
2023-04-10T16:10:41.836Z,19.30
2023-04-10T16:13:08.576Z,19.20
2023-04-10T16:15:36.971Z,19.20
2023-04-10T16:18:05.182Z,19.20
2023-04-10T16:20:32.276Z,19.20
2023-04-10T16:23:00.511Z,19.20
2023-04-10T16:25:28.483Z,19.20
2023-04-10T16:27:55.785Z,19.10
2023-04-10T16:30:23.633Z,19.10
2023-04-10T16:32:51.194Z,19.10
2023-04-10T16:35:19.070Z,19.10
2023-04-10T16:37:46.574Z,19.10
2023-04-10T16:40:13.791Z,19.10
2023-04-10T16:42:40.748Z,19.00
2023-04-10T16:45:08.582Z,19.00
2023-04-10T16:47:35.817Z,19.00
2023-04-10T16:50:02.781Z,19.00
2023-04-10T16:52:29.710Z,19.00
2023-04-10T16:54:56.532Z,19.00
2023-04-10T16:57:23.335Z,19.00
2023-04-10T16:59:50.345Z,19.00
2023-04-10T17:02:17.108Z,19.00
2023-04-10T17:04:43.891Z,18.90
2023-04-10T17:07:10.617Z,18.90
2023-04-10T17:09:37.855Z,18.90
2023-04-10T17:12:04.825Z,18.90
2023-04-10T17:14:31.673Z,18.90
2023-04-10T17:16:58.448Z,18.90
2023-04-10T17:19:25.579Z,18.90
2023-04-10T17:21:52.476Z,18.80
2023-04-10T17:24:19.267Z,18.80
2023-04-10T17:26:46.016Z,18.80
2023-04-10T17:29:12.853Z,18.80
2023-04-10T17:31:39.614Z,18.80
2023-04-10T17:34:06.481Z,18.80
2023-04-10T17:36:33.219Z,18.80
2023-04-10T17:39:00.796Z,18.70
2023-04-10T17:41:27.788Z,18.70
2023-04-10T17:43:54.688Z,18.70
2023-04-10T17:46:21.606Z,18.70
2023-04-10T17:48:48.474Z,18.70
2023-04-10T17:51:15.287Z,18.70
2023-04-10T17:53:42.125Z,18.70
2023-04-10T17:56:16.976Z,18.70
2023-04-10T17:58:43.676Z,18.70
2023-04-10T18:01:11.169Z,18.70
2023-04-10T18:03:38.088Z,18.70
2023-04-10T18:06:05.042Z,18.70
2023-04-10T18:08:31.778Z,18.70
2023-04-10T18:10:58.527Z,18.60
2023-04-10T18:13:25.260Z,18.60
2023-04-10T18:15:51.994Z,18.60
2023-04-10T18:18:18.752Z,18.60
2023-04-10T18:20:45.469Z,18.60
2023-04-10T18:23:12.296Z,18.60
2023-04-10T18:25:39.068Z,18.60
2023-04-10T18:28:14.572Z,18.50
2023-04-10T18:30:42.407Z,18.60
2023-04-10T18:33:11.028Z,18.50
2023-04-10T18:35:38.390Z,18.50
2023-04-10T18:38:05.342Z,18.50
2023-04-10T18:40:34.505Z,18.50
2023-04-10T18:43:01.313Z,18.50
2023-04-10T18:45:28.076Z,18.50
2023-04-10T18:47:54.886Z,18.40
2023-04-10T18:50:21.754Z,18.40
2023-04-10T18:52:48.511Z,18.40
2023-04-10T18:55:15.928Z,18.40
2023-04-10T18:57:42.658Z,18.40
2023-04-10T19:00:11.724Z,18.40
2023-04-10T19:02:38.887Z,18.40
2023-04-10T19:05:06.152Z,18.40
2023-04-10T19:07:33.070Z,18.40
2023-04-10T19:09:59.866Z,18.40
2023-04-10T19:12:26.631Z,18.40
2023-04-10T19:14:53.425Z,18.30
2023-04-10T19:17:21.812Z,18.30
2023-04-10T19:19:48.779Z,18.30
2023-04-10T19:22:16.348Z,18.30
2023-04-10T19:24:43.195Z,18.30
2023-04-10T19:27:10.241Z,18.30
2023-04-10T19:29:37.017Z,18.30
2023-04-10T19:32:04.386Z,18.30
2023-04-10T19:34:31.227Z,18.30
2023-04-10T19:36:58.516Z,18.30
2023-04-10T19:39:25.262Z,18.30
2023-04-10T19:41:51.987Z,18.20
2023-04-10T19:44:18.745Z,18.10
2023-04-10T19:46:47.725Z,18.00
2023-04-10T19:49:14.688Z,17.90
2023-04-10T19:51:41.454Z,17.80
2023-04-10T19:54:08.344Z,17.60
2023-04-10T19:56:37.775Z,17.60
2023-04-10T19:59:04.582Z,17.50
2023-04-10T20:01:31.371Z,17.40
2023-04-10T20:03:58.272Z,17.30
2023-04-10T20:06:25.644Z,17.20
2023-04-10T20:08:52.775Z,17.20
2023-04-10T20:11:19.842Z,17.10
2023-04-10T20:13:46.702Z,17.10
2023-04-10T20:16:13.531Z,17.00
2023-04-10T20:18:41.186Z,17.00
2023-04-10T20:21:08.222Z,17.00
2023-04-10T20:23:35.014Z,16.90
2023-04-10T20:26:01.737Z,16.90
2023-04-10T20:28:28.639Z,16.80
2023-04-10T20:30:55.416Z,16.80
2023-04-10T20:33:22.201Z,16.80
2023-04-10T20:35:49.002Z,16.70
2023-04-10T20:38:17.764Z,16.70
2023-04-10T20:40:44.844Z,16.70
2023-04-10T20:43:12.244Z,16.70
2023-04-10T20:45:40.008Z,16.60
2023-04-10T20:48:08.247Z,16.60
2023-04-10T20:50:36.886Z,16.60
2023-04-10T20:53:03.704Z,16.60
2023-04-10T20:55:30.536Z,16.60
2023-04-10T20:57:58.006Z,16.60
2023-04-10T21:00:24.922Z,16.50
2023-04-10T21:02:51.816Z,16.60
2023-04-10T21:05:18.677Z,16.50
2023-04-10T21:07:45.926Z,16.50
2023-04-10T21:10:12.805Z,16.50
2023-04-10T21:12:39.611Z,16.50
2023-04-10T21:15:06.974Z,16.50
2023-04-10T21:17:33.819Z,16.40
2023-04-10T21:20:00.789Z,16.40
2023-04-10T21:22:29.375Z,16.40
2023-04-10T21:24:56.382Z,16.40
2023-04-10T21:27:23.104Z,16.40
2023-04-10T21:29:49.900Z,16.30
2023-04-10T21:32:16.684Z,16.30
2023-04-10T21:34:43.495Z,16.30
2023-04-10T21:37:10.386Z,16.30
2023-04-10T21:39:41.151Z,16.30
2023-04-10T21:42:08.068Z,16.20
2023-04-10T21:44:34.836Z,16.20
2023-04-10T21:47:01.690Z,16.20
2023-04-10T21:49:28.409Z,16.20
2023-04-10T21:51:55.271Z,16.20
2023-04-10T21:54:22.024Z,16.20
2023-04-10T21:56:48.751Z,16.20
2023-04-10T21:59:15.616Z,16.20
2023-04-10T22:01:43.353Z,16.20
2023-04-10T22:04:10.286Z,16.20
2023-04-10T22:06:37.226Z,16.10
2023-04-10T22:09:03.984Z,16.20
2023-04-10T22:11:30.748Z,16.10
2023-04-10T22:14:00.173Z,16.10
2023-04-10T22:16:32.612Z,16.10
2023-04-10T22:19:00.305Z,16.10
2023-04-10T22:21:27.486Z,16.00
2023-04-10T22:23:54.277Z,16.00
2023-04-10T22:26:21.093Z,16.00
2023-04-10T22:28:47.872Z,16.00
2023-04-10T22:31:16.420Z,15.90
2023-04-10T22:33:43.306Z,16.00
2023-04-10T22:36:10.545Z,16.00
2023-04-10T22:38:37.502Z,16.00
2023-04-10T22:41:06.524Z,16.00
2023-04-10T22:43:36.229Z,16.00
2023-04-10T22:46:02.988Z,16.00
2023-04-10T22:48:29.768Z,16.00
2023-04-10T22:50:56.507Z,16.00
2023-04-10T22:53:23.246Z,16.00
2023-04-10T22:55:50.241Z,15.90
2023-04-10T22:58:17.010Z,15.90
2023-04-10T23:00:43.713Z,15.90
2023-04-10T23:03:10.736Z,15.80
2023-04-10T23:05:37.670Z,15.80
2023-04-10T23:08:04.402Z,15.80
2023-04-10T23:10:31.139Z,15.80
2023-04-10T23:12:57.982Z,15.80
2023-04-10T23:15:24.701Z,15.70
2023-04-10T23:17:51.490Z,15.70
2023-04-10T23:20:18.549Z,15.70
2023-04-10T23:22:45.294Z,15.70
2023-04-10T23:25:12.047Z,15.60
2023-04-10T23:27:39.159Z,15.60
2023-04-10T23:30:06.526Z,15.60
2023-04-10T23:32:33.738Z,15.60
2023-04-10T23:35:00.784Z,15.50
2023-04-10T23:37:27.540Z,15.50
2023-04-10T23:39:54.262Z,15.50
2023-04-10T23:42:21.030Z,15.40
2023-04-10T23:44:47.779Z,15.40
2023-04-10T23:47:14.554Z,15.30
2023-04-10T23:49:41.298Z,15.30
2023-04-10T23:52:09.949Z,15.30
2023-04-10T23:54:36.609Z,15.30
2023-04-10T23:57:03.369Z,15.30
2023-04-10T23:59:30.120Z,15.20
